METAR Data
IDs: Format: Raw Decoded Include TAF

Data at: 1620 UTC 19 Sep 2018

KLAL 191550Z 25003KT 10SM SCT020 31/23 A3000
KLAL 191501Z 20003KT 10SM SKC 30/23 A3000
KLAL 191450Z 00000KT 10SM SKC 30/23 A3000
KLAL 191350Z 19003KT 10SM SKC 29/24 A3000
KLAL 191250Z 00000KT 10SM SKC 27/23 A2999
KLAL 191145Z 00000KT 10SM SKC 25/23 A2997
KLAL 191045Z 00000KT 10SM SCT055 25/23 A2996
KLAL 190950Z 00000KT 10SM BKN050 24/23 A2995
KLAL 190935Z AUTO 00000KT 10SM CLR 25/23 A2994 RMK AO2
KLAL 190835Z AUTO 00000KT 10SM CLR 24/22 A2994 RMK AO2
KLAL 190815Z AUTO 00000KT 10SM CLR 25/22 A2994 RMK AO2
KLAL 190755Z AUTO 00000KT 10SM CLR 25/22 A2994 RMK AO2 LTG DSNT NE
KLAL 190715Z AUTO 00000KT 10SM BKN044 BKN060 BKN095 25/22 A2994 RMK AO2
KLAL 190615Z AUTO 00000KT 10SM SCT046 OVC060 24/22 A2995 RMK AO2
KLAL 190455Z AUTO 22004KT 10SM CLR 24/22 A2998 RMK AO2 LTG DSNT SW
KLAL 190435Z AUTO 00000KT 10SM CLR 25/22 A2997 RMK AO2
KLAL 190415Z AUTO 00000KT 10SM CLR 25/23 A2997 RMK AO2
KLAL 190355Z AUTO 00000KT 10SM SCT033 25/22 A2997 RMK AO2
KLAL 190315Z AUTO 18005KT 10SM VCTS SCT033 SCT040 BKN050 26/22 A2999 RMK AO2 LTG DSNT S
KLAL 190150Z 00000KT 10SM SCT060 28/24 A2997
KLAL 190050Z 00000KT 10SM SCT060 28/23 A2993
KLAL 182350Z 34003KT 10SM FEW050 29/23 A2991
KLAL 182250Z 31005KT 10SM FEW050 30/23 A2991
KLAL 182153Z 31004KT 10SM SCT050 BKN100 29/23 A2991
KLAL 182050Z 30008KT 10SM SCT050 29/23 A2992
KLAL 181950Z 16004KT 10SM SCT044 33/22 A2992
KLAL 181850Z 00000KT 10SM SCT044 32/22 A2994
KLAL 181750Z 18004KT 10SM BKN044 32/22 A2997
KLAL 181645Z 17004KT 10SM BKN037 31/23 A3000
KLAL 181445Z 00000KT 10SM FEW015 31/23 A3002
KLAL 181345Z 18004KT 10SM SKC 29/23 A3001
KLAL 181145Z 00000KT 10SM SKC 26/24 A3001
KLAL 181045Z 00000KT 10SM SKC 25/24 A3000
KLAL 180950Z 00000KT 10SM SKC 25/23 A2998 RMK LTG DSNT NE AND S
KLAL 180935Z AUTO 00000KT 10SM CLR 25/23 A2998 RMK AO2
KLAL 180915Z AUTO 11003KT 10SM CLR 25/23 A2998 RMK AO2
KLAL 180855Z AUTO 11003KT 10SM CLR 25/23 A2998 RMK AO2
KLAL 180835Z AUTO 11004KT 10SM CLR 25/23 A2998 RMK AO2
KLAL 180815Z AUTO 00000KT 10SM CLR 25/23 A2998 RMK AO2
KLAL 180755Z AUTO 00000KT 10SM CLR 25/23 A2998 RMK AO2
KLAL 180735Z AUTO 14004KT 10SM CLR 25/23 A2998 RMK AO2
KLAL 180715Z AUTO 12004KT 10SM CLR 25/23 A2998 RMK AO2 LTG DSNT SW
KLAL 180655Z AUTO 12004KT 10SM CLR 25/23 A2999 RMK AO2
KLAL 180635Z AUTO 09003KT 10SM CLR 26/23 A2999 RMK AO2
KLAL 180615Z AUTO 10004KT 10SM CLR 26/23 A2999 RMK AO2
KLAL 180555Z AUTO 09004KT 10SM CLR 26/23 A3000 RMK AO2
KLAL 180535Z AUTO 10003KT 10SM CLR 26/23 A3000 RMK AO2
KLAL 180515Z AUTO 11004KT 10SM SCT044 26/23 A3000 RMK AO2
KLAL 180455Z AUTO 11004KT 10SM SCT042 26/23 A3000 RMK AO2
KLAL 180435Z AUTO 09003KT 10SM SCT042 26/23 A3001 RMK AO2